Map

Track Data

SID SEASON NUMBER BASIN SUBBASIN NAME ISO_TIME NATURE LAT LON WMO_WIND WMO_PRES WMO_AGENCY TRACK_TYPE DIST2LAND LANDFALL IFLAG USA_AGENCY USA_ATCF_ID USA_LAT USA_LON USA_RECORD USA_STATUS USA_WIND USA_PRES USA_SSHS USA_R34_NE USA_R34_SE USA_R34_SW USA_R34_NW USA_R50_NE USA_R50_SE USA_R50_SW USA_R50_NW USA_R64_NE USA_R64_SE USA_R64_SW USA_R64_NW USA_POCI USA_ROCI USA_RMW USA_EYE TOKYO_LAT TOKYO_LON TOKYO_GRADE TOKYO_WIND TOKYO_PRES TOKYO_R50_DIR TOKYO_R50_LONG TOKYO_R50_SHORT TOKYO_R30_DIR TOKYO_R30_LONG TOKYO_R30_SHORT TOKYO_LAND CMA_LAT CMA_LON CMA_CAT CMA_WIND CMA_PRES HKO_LAT HKO_LON HKO_CAT HKO_WIND HKO_PRES NEWDELHI_LAT NEWDELHI_LON NEWDELHI_GRADE NEWDELHI_WIND NEWDELHI_PRES NEWDELHI_CI NEWDELHI_DP NEWDELHI_POCI REUNION_LAT REUNION_LON REUNION_TYPE REUNION_WIND REUNION_PRES REUNION_TNUM REUNION_CI REUNION_RMW REUNION_R34_NE REUNION_R34_SE REUNION_R34_SW REUNION_R34_NW REUNION_R50_NE REUNION_R50_SE REUNION_R50_SW REUNION_R50_NW REUNION_R64_NE REUNION_R64_SE REUNION_R64_SW REUNION_R64_NW BOM_LAT BOM_LON BOM_TYPE BOM_WIND BOM_PRES BOM_TNUM BOM_CI BOM_RMW BOM_R34_NE BOM_R34_SE BOM_R34_SW BOM_R34_NW BOM_R50_NE BOM_R50_SE BOM_R50_SW BOM_R50_NW BOM_R64_NE BOM_R64_SE BOM_R64_SW BOM_R64_NW BOM_ROCI BOM_POCI BOM_EYE BOM_POS_METHOD BOM_PRES_METHOD NADI_LAT NADI_LON NADI_CAT NADI_WIND NADI_PRES WELLINGTON_LAT WELLINGTON_LON WELLINGTON_WIND WELLINGTON_PRES DS824_LAT DS824_LON DS824_STAGE DS824_WIND DS824_PRES TD9636_LAT TD9636_LON TD9636_STAGE TD9636_WIND TD9636_PRES TD9635_LAT TD9635_LON TD9635_WIND TD9635_PRES TD9635_ROCI NEUMANN_LAT NEUMANN_LON NEUMANN_CLASS NEUMANN_WIND NEUMANN_PRES MLC_LAT MLC_LON MLC_CLASS MLC_WIND MLC_PRES USA_GUST BOM_GUST BOM_GUST_PER REUNION_GUST REUNION_GUST_PER USA_SEAHGT USA_SEARAD_NE USA_SEARAD_SE USA_SEARAD_SW USA_SEARAD_NW STORM_SPEED STORM_DIR
2020040S15164 2020 10 SP MM UESI 2020-02-09 00:00:00 NR -15.1000 163.600 PROVISIONAL 313 313 O_____________ tcvitals SP152020 -15.1000 163.600 35 996 0 70 80 1002 180 40 5 237
2020040S15164 2020 10 SP MM UESI 2020-02-09 03:00:00 NR -15.2450 163.368 PROVISIONAL 336 336 P_____________ SP152020 -15.2450 163.368 35 995 0 100 95 1002 180 40 4 224
2020040S15164 2020 10 SP MM UESI 2020-02-09 06:00:00 NR -15.4000 163.300 PROVISIONAL 350 333 O_____________ tcvitals SP152020 -15.4000 163.300 35 995 0 130 110 90 85 1002 180 40 4 161
2020040S15164 2020 10 SP MM UESI 2020-02-09 09:00:00 NR -15.5776 163.485 PROVISIONAL 333 312 P_____________ SP152020 -15.5776 163.485 37 994 0 97 97 82 52 1002 180 40 6 136
2020040S15164 2020 10 SP MM UESI 2020-02-09 12:00:00 NR -15.8000 163.700 PROVISIONAL 313 313 O_____________ tcvitals SP152020 -15.8000 163.700 39 994 0 65 85 75 20 1002 180 40 6 156
2020040S15164 2020 10 SP MM UESI 2020-02-09 15:00:00 NR -16.0849 163.725 PROVISIONAL 320 320 P_____________ SP152020 -16.0849 163.725 46 990 0 72 90 75 20 1001 182 32 6 189
2020040S15164 2020 10 SP MM UESI 2020-02-09 18:00:00 NR -16.4000 163.600 PROVISIONAL 339 339 O_____________ tcvitals SP152020 -16.4000 163.600 54 986 0 80 95 75 20 1001 185 25 7 211
2020040S15164 2020 10 SP MM UESI 2020-02-09 21:00:00 NR -16.7151 163.330 PROVISIONAL 381 373 P_____________ SP152020 -16.7151 163.330 54 986 0 70 105 95 32 1001 187 22 8 224
2020040S15164 2020 10 SP MM UESI 2020-02-10 00:00:00 NR -17.0000 163.000 PROVISIONAL 376 362 O_____________ tcvitals SP152020 -17.0000 163.000 54 986 0 60 115 115 45 1002 190 20 8 229
2020040S15164 2020 10 SP MM UESI 2020-02-10 03:00:00 NR -17.2300 162.705 PROVISIONAL 366 350 P_____________ SP152020 -17.2300 162.705 57 984 0 95 140 122 57 1002 190 22 6 230
2020040S15164 2020 10 SP MM UESI 2020-02-10 06:00:00 NR -17.4000 162.500 PROVISIONAL 355 345 O_____________ tcvitals SP152020 -17.4000 162.500 60 982 0 130 165 130 70 1002 190 25 4 221
2020040S15164 2020 10 SP MM UESI 2020-02-10 09:00:00 NR -17.4924 162.462 PROVISIONAL 345 336 P_____________ SP152020 -17.4924 162.462 62 980 0 110 162 132 77 1002 190 19 2 172
2020040S15164 2020 10 SP MM UESI 2020-02-10 12:00:00 NR -17.6000 162.500 PROVISIONAL 336 316 O_____________ tcvitals SP152020 -17.6000 162.500 64 979 1 90 160 135 85 1002 190 14 3 175
2020040S15164 2020 10 SP MM UESI 2020-02-10 15:00:00 NR -17.8125 162.493 PROVISIONAL 316 288 P_____________ SP152020 -17.8125 162.493 64 978 1 92 152 132 82 1002 195 24 5 178
2020040S15164 2020 10 SP MM UESI 2020-02-10 18:00:00 NR -18.1000 162.500 PROVISIONAL 288 262 O_____________ tcvitals SP152020 -18.1000 162.500 64 978 1 95 145 130 80 1002 200 35 6 174
2020040S15164 2020 10 SP MM UESI 2020-02-10 21:00:00 NR -18.4275 162.550 PROVISIONAL 262 221 P_____________ SP152020 -18.4275 162.550 69 976 1 87 117 100 77 1002 195 20 7 172
2020040S15164 2020 10 SP MM UESI 2020-02-11 00:00:00 NR -18.8000 162.600 PROVISIONAL 221 191 O_____________ tcvitals SP152020 -18.8000 162.600 74 974 1 80 90 70 75 1002 190 5 8 176
2020040S15164 2020 10 SP MM UESI 2020-02-11 03:00:00 NR -19.1850 162.600 PROVISIONAL 191 165 P_____________ SP152020 -19.1850 162.600 74 972 1 97 112 72 67 1001 190 7 8 179
2020040S15164 2020 10 SP MM UESI 2020-02-11 06:00:00 NR -19.6000 162.600 PROVISIONAL 165 149 O_____________ tcvitals SP152020 -19.6000 162.600 74 971 1 115 135 75 60 1000 190 10 8 178
2020040S15164 2020 10 SP MM UESI 2020-02-11 09:00:00 NR -20.0275 162.650 PROVISIONAL 149 135 P_____________ SP152020 -20.0275 162.650 72 973 1 105 142 122 70 1001 187 15 9 174
2020040S15164 2020 10 SP MM UESI 2020-02-11 12:00:00 NR -20.5000 162.700 PROVISIONAL 137 137 O_____________ tcvitals SP152020 -20.5000 162.700 70 975 1 95 150 170 80 1002 185 20 10 176
2020040S15164 2020 10 SP MM UESI 2020-02-11 15:00:00 NR -21.0425 162.722 PROVISIONAL 156 156 P_____________ SP152020 -21.0425 162.722 72 973 1 112 140 132 87 1002 180 20 11 180
2020040S15164 2020 10 SP MM UESI 2020-02-11 18:00:00 NR -21.6000 162.700 PROVISIONAL 197 197 O_____________ tcvitals SP152020 -21.6000 162.700 74 972 1 130 130 95 95 1002 175 20 11 185
2020040S15164 2020 10 SP MM UESI 2020-02-11 21:00:00 NR -22.1225 162.623 PROVISIONAL 236 236 P_____________ SP152020 -22.1225 162.623 72 974 1 100 135 110 82 1001 167 20 10 191
2020040S15164 2020 10 SP MM UESI 2020-02-12 00:00:00 NR -22.6000 162.500 PROVISIONAL 281 281 O_____________ tcvitals SP152020 -22.6000 162.500 70 976 1 70 140 126 70 1001 160 20 9 196
2020040S15164 2020 10 SP MM UESI 2020-02-12 03:00:00 NR -23.0000 162.357 PROVISIONAL 313 313 P_____________ SP152020 -23.0000 162.357 70 974 1 90 142 120 75 1000 170 22 9 199
2020040S15164 2020 10 SP MM UESI 2020-02-12 06:00:00 NR -23.4000 162.200 PROVISIONAL 356 356 O_____________ tcvitals SP152020 -23.4000 162.200 70 973 1 110 145 115 80 1000 180 25 9 199
2020040S15164 2020 10 SP MM UESI 2020-02-12 09:00:00 NR -23.8475 162.042 PROVISIONAL 400 400 P_____________ SP152020 -23.8475 162.042 65 974 1 125 175 147 90 1000 185 32 10 195
2020040S15164 2020 10 SP MM UESI 2020-02-12 12:00:00 NR -24.4000 161.900 PROVISIONAL 454 454 O_____________ tcvitals SP152020 -24.4000 161.900 60 975 0 140 205 180 100 1000 190 40 13 189
2020040S15164 2020 10 SP MM UESI 2020-02-12 15:00:00 NR -25.0899 161.822 PROVISIONAL 520 520 P_____________ SP152020 -25.0899 161.822 57 976 0 142 202 180 100 1000 192 35 15 187
2020040S15164 2020 10 SP MM UESI 2020-02-12 18:00:00 NR -25.9000 161.700 PROVISIONAL 599 599 O_____________ tcvitals SP152020 -25.9000 161.700 54 977 0 145 200 180 100 1000 195 30 18 191
2020040S15164 2020 10 SP MM UESI 2020-02-12 21:00:00 NR -26.8300 161.438 PROVISIONAL 700 700 P_____________ SP152020 -26.8300 161.438 54 978 0 142 205 167 92 1001 192 30 19 197
2020040S15164 2020 10 SP MM UESI 2020-02-13 00:00:00 NR -27.7000 161.100 PROVISIONAL 737 694 O_____________ tcvitals SP152020 -27.7000 161.100 54 980 0 140 210 155 85 1002 190 30 16 204
2020040S15164 2020 10 SP MM UESI 2020-02-13 03:00:00 NR -28.2727 160.712 PROVISIONAL 694 661 P_____________ SP152020 -28.2727 160.712 54 979 0 157 210 157 92 1002 197 50 13 209
2020040S15164 2020 10 SP MM UESI 2020-02-13 06:00:00 NR -28.8000 160.400 PROVISIONAL 661 652 O_____________ tcvitals SP152020 -28.8000 160.400 54 979 0 175 210 160 100 1002 205 70 13 194
2020040S15164 2020 10 SP MM UESI 2020-02-13 09:00:00 NR -29.5347 160.348 PROVISIONAL 652 652 P_____________ SP152020 -29.5347 160.348 54 978 0 185 227 172 105 1002 202 70 15 183
2020040S15164 2020 10 SP MM UESI 2020-02-13 12:00:00 NR -30.3000 160.300 PROVISIONAL 665 651 O_____________ tcvitals SP152020 -30.3000 160.300 54 977 0 195 245 185 110 1002 200 70 15 191
2020040S15164 2020 10 SP MM UESI 2020-02-13 15:00:00 NR -30.9723 160.025 PROVISIONAL 652 618 P_____________ SP152020 -30.9723 160.025 52 978 0 185 247 187 110 1002 197 70 14 205
2020040S15164 2020 10 SP EA UESI 2020-02-13 18:00:00 NR -31.6000 159.600 PROVISIONAL 618 570 O_____________ tcvitals SP152020 -31.6000 159.600 51 979 0 175 250 190 110 1002 195 70 15 215
2020040S15164 2020 10 SP EA UESI 2020-02-13 21:00:00 NR -32.2233 158.992 PROVISIONAL 570 539 P_____________ SP152020 -32.2233 158.992 48 981 0 167 255 202 120 1003 202 70 15 218
2020040S15164 2020 10 SP EA UESI 2020-02-14 00:00:00 NR -32.8000 158.500 PROVISIONAL 542 537 O_____________ tcvitals SP152020 -32.8000 158.500 45 983 0 160 260 215 130 1004 210 70 12 203
2020040S15164 2020 10 SP EA UESI 2020-02-14 03:00:00 NR -33.3146 158.444 PROVISIONAL 549 549 P_____________ SP152020 -33.3146 158.444 48 981 0 162 262 210 128 1004 210 70 10 175
2020040S15164 2020 10 SP EA UESI 2020-02-14 06:00:00 NR -33.8000 158.600 PROVISIONAL 585 585 O_____________ tcvitals SP152020 -33.8000 158.600 51 979 0 165 265 205 126 1004 210 70 10 166
2020040S15164 2020 10 SP EA UESI 2020-02-14 09:00:00 NR -34.3000 158.735 PROVISIONAL 612 612 P_____________ SP152020 -34.3000 158.735 51 979 0 142 237 207 135 1004 210 70 10 166
2020040S15164 2020 10 SP EA UESI 2020-02-14 12:00:00 NR -34.8000 158.900 PROVISIONAL 649 649 O_____________ tcvitals SP152020 -34.8000 158.900 51 980 0 120 210 210 145 1004 210 70 10 164
2020040S15164 2020 10 SP EA UESI 2020-02-14 15:00:00 NR -35.2625 159.072 PROVISIONAL 688 688 P_____________ SP152020 -35.2625 159.072 51 979 0 135 225 212 127 1004 220 70 10 166
2020040S15164 2020 10 SP EA UESI 2020-02-14 18:00:00 NR -35.8000 159.200 PROVISIONAL 722 722 O_____________ tcvitals SP152020 -35.8000 159.200 51 978 0 150 240 215 110 1004 230 70 12 174
2020040S15164 2020 10 SP EA UESI 2020-02-14 21:00:00 NR -36.5000 159.230 PROVISIONAL 764 764 P_____________ SP152020 -36.5000 159.230 43 984 0 1004 230 70 15 0
2020040S15164 2020 10 SP EA UESI 2020-02-15 00:00:00 NR -37.3000 159.200 PROVISIONAL 786 O_____________ tcvitals SP152020 -37.3000 159.200 35 990 0 1004 230 70 16 181

Digital Typhoon Data and Search

About IBTrACS Database

This database is a web-friendly format of International Best Track Archive for Climate Stewardship (IBTrACS), a global best track data archive curated by NOAA dating back to 1842.

Updated: 2021-10-21